Time;durP1;ratioP1;P1;durP2;ratioP2;P2;SDS_P1;SDS_P2;PMS_P1;PMS_P2;Temp;Humidity;BMP_temperature;BMP_pressure;BME280_temperature;BME280_humidity;BME280_pressure;Samples;Min_cycle;Max_cycle;Signal;HPM_P1;HPM_P2
2023/12/03 00:02:31;;;;;;;4.15;2.95;;;;;;;18.24;35.00;101820.91;16114284;19;130694;-48
2023/12/03 00:07:53;;;;;;;4.70;3.15;;;;;;;18.21;35.06;101824.13;16113295;19;130105;-48
2023/12/03 00:13:15;;;;;;;3.83;2.90;;;;;;;18.20;35.00;101825.22;16111775;19;129705;-52
2023/12/03 00:18:39;;;;;;;4.93;2.95;;;;;;;18.15;34.90;101829.47;16114401;19;129555;-49
2023/12/03 00:24:01;;;;;;;5.10;2.97;;;;;;;18.14;34.78;101829.72;16113770;19;130526;-50
2023/12/03 00:29:23;;;;;;;4.50;2.80;;;;;;;18.13;35.16;101830.78;16110981;19;129581;-48
2023/12/03 00:34:45;;;;;;;3.95;2.70;;;;;;;18.10;35.18;101843.13;16108513;19;129780;-53
2023/12/03 00:40:07;;;;;;;3.55;2.53;;;;;;;18.09;35.21;101841.41;16109377;19;130887;-48
2023/12/03 00:45:29;;;;;;;3.60;2.67;;;;;;;18.07;35.12;101848.25;16110442;19;129680;-52
2023/12/03 00:50:51;;;;;;;4.43;3.30;;;;;;;18.05;34.77;101845.72;16106776;19;130908;-53
2023/12/03 00:56:13;;;;;;;3.40;2.72;;;;;;;18.03;35.20;101850.63;16110537;19;131628;-52
2023/12/03 01:01:36;;;;;;;4.25;2.80;;;;;;;18.01;35.20;101855.53;16106324;19;129555;-51
2023/12/03 01:06:58;;;;;;;4.55;2.80;;;;;;;17.99;35.16;101861.28;16108340;19;129408;-52
2023/12/03 01:12:19;;;;;;;3.42;2.80;;;;;;;17.97;34.80;101852.34;16098220;19;133735;-52
2023/12/03 01:17:41;;;;;;;3.85;2.80;;;;;;;17.96;35.11;101852.59;16108055;19;129615;-48
2023/12/03 01:23:03;;;;;;;3.92;2.92;;;;;;;17.94;35.26;101849.19;16108312;19;130627;-52
2023/12/03 01:28:25;;;;;;;3.00;2.70;;;;;;;17.92;35.31;101862.38;16095542;19;130336;-51
2023/12/03 01:33:48;;;;;;;4.07;2.40;;;;;;;17.90;34.89;101864.53;16097644;19;132091;-47
2023/12/03 01:39:12;;;;;;;4.13;2.83;;;;;;;17.87;34.82;101871.34;16110312;19;131104;-47
2023/12/03 01:44:34;;;;;;;3.00;2.45;;;;;;;17.85;35.37;101873.47;16108150;19;131001;-47
2023/12/03 01:50:05;;;;;;;4.15;2.60;;;;;;;17.85;35.30;101876.25;16116133;19;131269;-47
2023/12/03 01:55:27;;;;;;;3.63;2.70;;;;;;;17.82;35.22;101891.38;16119569;19;134951;-51
2023/12/03 02:00:49;;;;;;;3.42;2.70;;;;;;;17.82;35.08;101891.38;16121028;19;131222;-47
2023/12/03 02:06:11;;;;;;;3.85;2.88;;;;;;;17.80;35.32;101887.97;16120252;19;129596;-47
2023/12/03 02:11:34;;;;;;;5.57;2.50;;;;;;;17.79;35.22;101891.81;16117188;19;130484;-49
2023/12/03 02:16:56;;;;;;;5.95;2.40;;;;;;;17.78;34.89;101890.09;16118012;19;130565;-51
2023/12/03 02:22:18;;;;;;;3.28;2.35;;;;;;;17.76;34.97;101889.47;16120912;19;133387;-48
2023/12/03 02:27:40;;;;;;;2.88;2.40;;;;;;;17.74;35.05;101883.28;16115677;19;130164;-52
2023/12/03 02:33:02;;;;;;;5.75;2.83;;;;;;;17.73;34.93;101881.59;16116828;19;129902;-50
2023/12/03 02:38:24;;;;;;;3.40;2.55;;;;;;;17.72;34.90;101882.69;16113731;19;129696;-45
2023/12/03 02:43:46;;;;;;;2.92;2.10;;;;;;;17.70;34.87;101876.50;16112649;19;132484;-48
2023/12/03 02:49:08;;;;;;;2.75;2.28;;;;;;;17.68;35.02;101878.63;16113737;19;130629;-46
2023/12/03 02:54:30;;;;;;;2.55;2.20;;;;;;;17.67;35.36;101879.72;16116965;19;129796;-51
2023/12/03 02:59:53;;;;;;;4.13;2.35;;;;;;;17.65;35.09;101884.59;16115067;19;129506;-53
2023/12/03 03:05:15;;;;;;;3.22;1.85;;;;;;;17.64;35.00;101866.28;16113045;19;129682;-46
2023/12/03 03:10:37;;;;;;;3.35;2.38;;;;;;;17.62;34.98;101873.97;16115543;19;131087;-46
2023/12/03 03:15:59;;;;;;;2.95;2.08;;;;;;;17.60;34.92;101876.94;16110838;19;131057;-47
2023/12/03 03:21:21;;;;;;;2.58;1.85;;;;;;;17.58;35.36;101881.00;16113008;19;129991;-49
2023/12/03 03:26:43;;;;;;;2.30;1.90;;;;;;;17.56;34.89;101881.22;16111091;19;130995;-43
2023/12/03 03:32:06;;;;;;;2.75;1.98;;;;;;;17.55;35.02;101876.75;16107389;19;131306;-44
2023/12/03 03:37:28;;;;;;;2.92;2.28;;;;;;;17.53;35.13;101885.22;16109562;19;130066;-46
2023/12/03 03:42:49;;;;;;;2.10;1.90;;;;;;;17.53;35.42;101884.41;16106632;19;129858;-47
2023/12/03 03:48:11;;;;;;;2.10;1.90;;;;;;;17.50;34.94;101893.97;16111147;19;129819;-48
2023/12/03 03:53:34;;;;;;;2.55;2.08;;;;;;;17.49;35.33;101885.88;16108933;19;130222;-49
2023/12/03 03:58:56;;;;;;;2.20;2.00;;;;;;;17.47;35.06;101888.00;16109403;19;129565;-53
2023/12/03 04:04:18;;;;;;;2.28;1.98;;;;;;;17.45;35.29;101891.00;16107206;19;129358;-50
2023/12/03 04:09:40;;;;;;;3.10;1.85;;;;;;;17.43;35.13;101901.44;16106388;19;130887;-49
2023/12/03 04:15:02;;;;;;;2.35;1.95;;;;;;;17.42;35.12;101896.97;16107976;19;131009;-51
2023/12/03 04:20:24;;;;;;;3.08;2.15;;;;;;;17.41;35.03;101900.78;16109182;19;129824;-47
2023/12/03 04:25:46;;;;;;;2.08;1.80;;;;;;;17.38;35.49;101888.25;16104897;19;130948;-50
2023/12/03 04:31:34;;;;;;;2.65;1.83;;;;;;;17.38;35.00;101890.13;16110378;19;130950;-47
2023/12/03 04:36:56;;;;;;;2.40;1.70;;;;;;;17.36;35.00;101892.25;16103633;19;130351;-45
2023/12/03 04:42:18;;;;;;;2.90;1.88;;;;;;;17.34;35.34;101886.13;16105875;19;135027;-52
2023/12/03 04:47:40;;;;;;;2.38;1.70;;;;;;;17.33;35.13;101889.94;16104431;19;131310;-45
2023/12/03 04:53:02;;;;;;;2.38;1.67;;;;;;;17.32;35.15;101875.25;16105328;19;129645;-46
2023/12/03 04:58:25;;;;;;;1.70;1.38;;;;;;;17.30;34.92;101888.44;16108396;19;134905;-47
2023/12/03 05:03:47;;;;;;;2.40;1.70;;;;;;;17.30;35.40;101887.59;16103595;19;132062;-46
2023/12/03 05:09:09;;;;;;;2.67;1.83;;;;;;;17.28;35.36;101889.72;16105041;19;131014;-48
2023/12/03 05:14:32;;;;;;;1.85;1.58;;;;;;;17.26;35.01;101897.38;16119549;19;129965;-50
2023/12/03 05:19:54;;;;;;;2.20;1.63;;;;;;;17.26;35.16;101900.16;16122307;19;129510;-48
2023/12/03 05:25:17;;;;;;;1.67;1.55;;;;;;;17.22;35.38;101903.38;16119773;19;130817;-48
2023/12/03 05:30:39;;;;;;;2.28;1.70;;;;;;;17.22;35.00;101908.91;16117830;19;130999;-46
2023/12/03 05:36:01;;;;;;;1.83;1.70;;;;;;;17.20;34.89;101919.31;16122460;19;131071;-48
2023/12/03 05:41:23;;;;;;;1.83;1.60;;;;;;;17.19;35.23;101906.53;16121590;19;128919;-45
2023/12/03 05:46:45;;;;;;;1.50;1.40;;;;;;;17.18;35.30;101920.56;16116023;19;131043;-49
2023/12/03 05:52:07;;;;;;;2.22;1.40;;;;;;;17.16;34.91;101923.56;16119239;19;130359;-48
2023/12/03 05:57:29;;;;;;;1.80;1.40;;;;;;;17.15;35.02;101926.53;16117031;19;131202;-46
2023/12/03 06:02:52;;;;;;;4.07;1.40;;;;;;;17.15;35.16;101934.84;16116354;19;131791;-48
2023/12/03 06:08:15;;;;;;;2.25;1.75;;;;;;;17.13;35.26;101923.13;16119445;19;130804;-47
2023/12/03 06:13:36;;;;;;;2.17;1.55;;;;;;;17.12;35.06;101930.56;16118817;19;129621;-44
2023/12/03 06:18:58;;;;;;;1.45;1.35;;;;;;;17.12;35.03;101916.72;16115896;19;130357;-47
2023/12/03 06:24:20;;;;;;;1.90;1.48;;;;;;;17.12;35.20;101913.97;16115272;19;129365;-50
2023/12/03 06:29:42;;;;;;;1.40;1.30;;;;;;;17.11;35.13;101912.25;16117401;19;130129;-46
2023/12/03 06:35:05;;;;;;;2.22;1.50;;;;;;;17.11;35.14;101920.56;16115267;19;130537;-50
2023/12/03 06:40:27;;;;;;;2.00;1.40;;;;;;;17.22;35.00;101903.38;16111135;19;129487;-46
2023/12/03 06:45:49;;;;;;;1.60;1.23;;;;;;;17.62;35.01;101919.09;16110776;19;131577;-46
2023/12/03 06:51:11;;;;;;;1.85;1.40;;;;;;;18.10;34.56;101915.13;16112156;19;131997;-48
2023/12/03 06:56:33;;;;;;;2.33;1.83;;;;;;;18.56;34.04;101915.19;16110559;19;130803;-47
2023/12/03 07:01:55;;;;;;;1.40;1.27;;;;;;;18.97;33.42;101902.75;16114980;19;130538;-48
2023/12/03 07:07:17;;;;;;;1.75;1.40;;;;;;;19.35;32.94;101910.16;16109936;19;129731;-50
2023/12/03 07:12:39;;;;;;;2.03;1.55;;;;;;;19.63;32.53;101910.75;16109554;19;130726;-47
2023/12/03 07:18:01;;;;;;;1.88;1.38;;;;;;;19.75;32.30;101919.16;16099114;19;129442;-46
2023/12/03 07:23:23;;;;;;;1.73;1.30;;;;;;;19.72;32.29;101916.84;16105228;19;129879;-49
2023/12/03 07:28:45;;;;;;;2.08;1.63;;;;;;;19.62;32.13;101920.16;16110579;19;129778;-53
2023/12/03 07:34:07;;;;;;;2.45;1.88;;;;;;;19.47;32.61;101926.03;16103222;19;130638;-49
2023/12/03 07:39:29;;;;;;;2.88;1.60;;;;;;;19.31;32.34;101927.47;16111686;19;130008;-44
2023/12/03 07:44:51;;;;;;;1.67;1.35;;;;;;;19.15;32.51;101928.84;16106477;19;129862;-48
2023/12/03 07:50:13;;;;;;;1.77;1.60;;;;;;;18.99;33.04;101933.88;16110884;19;131073;-49
2023/12/03 07:55:34;;;;;;;2.63;1.80;;;;;;;18.84;33.24;101941.66;16107099;19;131632;-47
2023/12/03 08:00:59;;;;;;;2.10;1.65;;;;;;;18.82;32.84;101930.78;16107835;19;130196;-45
2023/12/03 08:06:21;;;;;;;2.40;1.70;;;;;;;18.74;33.00;101931.06;16109524;19;130942;-51
2023/12/03 08:11:43;;;;;;;3.13;2.22;;;;;;;18.81;33.03;101944.88;16106699;19;129781;-46
2023/12/03 08:17:07;;;;;;;8.20;2.60;;;;;;;18.88;32.88;101940.13;16106762;19;129736;-45
2023/12/03 08:22:29;;;;;;;8.68;2.60;;;;;;;19.11;32.64;101942.34;16112230;19;131283;-50
2023/12/03 08:27:51;;;;;;;7.88;2.20;;;;;;;19.46;32.06;101950.19;16107164;19;132616;-53
2023/12/03 08:33:13;;;;;;;8.43;2.05;;;;;;;19.77;31.89;101956.72;16108974;19;129417;-48
2023/12/03 08:38:36;;;;;;;2.63;1.80;;;;;;;19.96;31.53;101962.31;16110364;19;130821;-52
2023/12/03 08:43:58;;;;;;;8.27;2.60;;;;;;;19.96;31.81;101960.38;16103517;19;130264;-54
2023/12/03 08:49:20;;;;;;;5.20;2.55;;;;;;;19.88;31.61;101965.41;16102342;19;131195;-53
2023/12/03 08:54:42;;;;;;;7.78;2.22;;;;;;;19.78;31.46;101968.69;16105927;19;130559;-47
2023/12/03 09:00:07;;;;;;;7.15;2.75;;;;;;;19.64;31.69;101979.06;16106361;19;130816;-51
2023/12/03 09:05:30;;;;;;;13.23;2.40;;;;;;;19.49;31.89;101974.72;16107071;19;129429;-47
2023/12/03 09:10:52;;;;;;;13.30;2.45;;;;;;;19.32;32.57;101966.06;16110303;19;130510;-53
2023/12/03 09:16:14;;;;;;;7.45;2.38;;;;;;;19.28;32.16;101953.75;16108104;19;130303;-44
2023/12/03 09:21:36;;;;;;;4.38;2.55;;;;;;;19.47;32.51;101956.56;16104553;19;129196;-52
2023/12/03 09:26:58;;;;;;;12.00;2.45;;;;;;;19.87;31.78;101953.41;16105806;19;130415;-46
2023/12/03 09:32:20;;;;;;;4.00;2.15;;;;;;;20.33;31.45;101950.34;16100628;19;131997;-48
2023/12/03 09:37:42;;;;;;;6.07;1.92;;;;;;;20.77;30.83;101947.44;16103460;19;131168;-47
2023/12/03 09:43:04;;;;;;;5.80;1.77;;;;;;;21.16;30.71;101946.00;16102973;19;129983;-50
2023/12/03 09:48:30;;;;;;;3.10;1.83;;;;;;;21.50;30.30;101939.88;16105112;19;130293;-52
2023/12/03 09:53:57;;;;;;;5.10;1.65;;;;;;;21.77;30.13;101928.28;16098547;19;131221;-47
2023/12/03 09:59:19;;;;;;;2.30;1.65;;;;;;;21.87;30.03;101936.84;16119526;19;133630;-54
2023/12/03 10:04:41;;;;;;;5.13;1.63;;;;;;;21.89;29.88;101936.63;16117518;19;130349;-53
2023/12/03 10:10:06;;;;;;;6.03;1.80;;;;;;;21.79;29.64;101931.66;16113220;19;130603;-48
2023/12/03 10:15:28;;;;;;;2.67;1.52;;;;;;;21.66;30.05;101941.97;16117636;19;129703;-50
2023/12/03 10:21:12;;;;;;;8.15;1.95;;;;;;;21.50;30.03;101926.84;16118361;19;129911;-56
2023/12/03 10:27:00;;;;;;;6.78;1.90;;;;;;;21.29;30.80;101931.00;16123863;19;130274;-52
2023/12/03 10:32:23;;;;;;;6.45;1.98;;;;;;;21.07;31.20;101919.59;16110361;19;131135;-51
2023/12/03 10:37:45;;;;;;;4.35;1.98;;;;;;;20.89;31.48;101924.16;16120081;19;131923;-53
2023/12/03 10:43:10;;;;;;;4.55;1.88;;;;;;;20.72;31.44;101903.63;16112013;19;130377;-57
2023/12/03 10:48:34;;;;;;;3.78;1.92;;;;;;;20.56;31.78;101897.66;16115280;19;131123;-55
2023/12/03 10:53:55;;;;;;;3.75;1.70;;;;;;;20.42;31.94;101893.38;16115142;19;130339;-52
2023/12/03 10:59:22;;;;;;;2.63;1.73;;;;;;;20.33;31.97;101883.66;16111961;19;130524;-50
2023/12/03 11:04:58;;;;;;;3.92;1.80;;;;;;;20.31;32.11;101871.97;16112692;19;130520;-52
2023/12/03 11:10:20;;;;;;;4.15;1.98;;;;;;;20.26;32.04;101867.06;16110414;19;130385;-52
2023/12/03 11:15:44;;;;;;;3.15;2.00;;;;;;;20.25;31.91;101869.03;16110249;19;130994;-48
2023/12/03 11:21:18;;;;;;;4.50;2.08;;;;;;;20.26;31.93;101854.03;16114861;19;132575;-47
2023/12/03 11:26:42;;;;;;;2.92;1.73;;;;;;;20.25;32.06;101857.91;16113362;19;131195;-48
2023/12/03 11:32:04;;;;;;;4.38;1.73;;;;;;;20.25;31.82;101844.00;16103332;19;130925;-45
2023/12/03 11:37:28;;;;;;;9.75;2.15;;;;;;;20.23;31.78;101840.63;16104101;19;129479;-51
2023/12/03 11:42:50;;;;;;;4.60;1.85;;;;;;;20.26;31.35;101840.16;16113054;19;129867;-49
2023/12/03 11:48:14;;;;;;;8.80;2.00;;;;;;;20.47;31.06;101834.31;16110264;19;130838;-45
2023/12/03 11:54:02;;;;;;;8.40;2.30;;;;;;;20.72;30.42;101839.69;16113714;19;129974;-49
2023/12/03 11:59:24;;;;;;;11.73;2.15;;;;;;;20.87;30.35;101831.78;16107285;19;129830;-47
2023/12/03 12:04:46;;;;;;;9.70;2.55;;;;;;;20.96;30.53;101835.06;16109422;19;131835;-44
2023/12/03 12:10:07;;;;;;;11.77;2.33;;;;;;;20.96;30.56;101823.94;16101825;19;129571;-46
2023/12/03 12:15:30;;;;;;;19.05;2.60;;;;;;;20.95;30.80;101807.47;16107742;19;130845;-47
2023/12/03 12:21:05;;;;;;;11.38;2.55;;;;;;;20.95;30.59;101805.53;16102076;19;131453;-45
2023/12/03 12:26:27;;;;;;;10.77;2.17;;;;;;;20.94;30.60;101814.97;16109993;19;129680;-51
2023/12/03 12:31:49;;;;;;;7.25;2.17;;;;;;;20.94;30.87;101812.19;16108010;19;131055;-48
2023/12/03 12:37:11;;;;;;;4.32;2.00;;;;;;;20.87;30.76;101809.53;16106697;19;129978;-44
2023/12/03 12:42:33;;;;;;;6.38;2.00;;;;;;;20.78;30.65;101799.84;16106837;19;130984;-46
2023/12/03 12:47:55;;;;;;;6.07;2.08;;;;;;;20.70;31.10;101791.81;16098240;19;130785;-51
2023/12/03 12:53:19;;;;;;;4.88;1.95;;;;;;;20.70;30.90;101783.47;16106306;19;131206;-51
2023/12/03 12:58:40;;;;;;;6.55;2.25;;;;;;;20.71;31.06;101779.59;16105461;19;131646;-48
2023/12/03 13:04:06;;;;;;;5.28;2.15;;;;;;;20.78;30.79;101769.25;16104871;19;129881;-45
2023/12/03 13:09:28;;;;;;;4.93;1.88;;;;;;;20.79;30.57;101776.50;16104032;19;129150;-46
2023/12/03 13:14:50;;;;;;;10.63;2.17;;;;;;;20.81;30.81;101782.66;16103683;19;129687;-47
2023/12/03 13:20:12;;;;;;;6.32;2.00;;;;;;;20.84;30.64;101784.13;16102736;19;129625;-48
2023/12/03 13:25:34;;;;;;;13.32;1.88;;;;;;;20.84;30.33;101779.41;16108452;19;131645;-50
2023/12/03 13:30:56;;;;;;;8.85;1.98;;;;;;;20.84;30.23;101770.22;16107197;19;130602;-49
2023/12/03 13:36:19;;;;;;;16.15;2.30;;;;;;;20.82;30.73;101752.94;16119316;19;131107;-48
2023/12/03 13:41:43;;;;;;;11.43;2.53;;;;;;;20.74;30.49;101743.81;16118929;19;129637;-47
2023/12/03 13:47:05;;;;;;;7.37;2.10;;;;;;;20.64;30.55;101735.22;16118471;19;130063;-50
2023/12/03 13:52:27;;;;;;;3.65;1.88;;;;;;;20.52;30.56;101723.25;16121581;19;130541;-49
2023/12/03 13:57:49;;;;;;;7.35;2.05;;;;;;;20.41;30.90;101727.72;16119688;19;130176;-51
2023/12/03 14:03:12;;;;;;;7.20;2.15;;;;;;;20.27;31.13;101711.25;16119029;19;132277;-48
2023/12/03 14:08:33;;;;;;;5.90;1.98;;;;;;;20.14;31.26;101703.97;16116888;19;131076;-45
2023/12/03 14:13:55;;;;;;;7.85;2.10;;;;;;;20.02;31.41;101696.69;16116417;19;131085;-47
2023/12/03 14:19:17;;;;;;;2.95;2.17;;;;;;;19.96;31.23;101695.69;16118578;19;130995;-47
2023/12/03 14:24:40;;;;;;;6.40;1.90;;;;;;;19.96;31.26;101682.63;16119103;19;134069;-45
2023/12/03 14:30:02;;;;;;;7.50;2.00;;;;;;;20.17;31.28;101676.78;16116104;19;131138;-49
2023/12/03 14:35:24;;;;;;;6.35;1.95;;;;;;;20.42;30.35;101669.09;16117365;19;130197;-47
2023/12/03 14:40:46;;;;;;;3.35;1.77;;;;;;;20.78;30.05;101663.59;16117776;19;131481;-45
2023/12/03 14:46:08;;;;;;;6.35;1.75;;;;;;;21.12;29.93;101660.97;16115684;19;130875;-46
2023/12/03 14:51:30;;;;;;;6.88;1.80;;;;;;;21.36;29.77;101655.34;16114868;19;131810;-47
2023/12/03 14:56:52;;;;;;;3.35;1.42;;;;;;;21.54;29.28;101647.94;16117032;19;130638;-49
2023/12/03 15:02:14;;;;;;;2.67;1.58;;;;;;;21.64;29.39;101646.19;16118787;19;134039;-46
2023/12/03 15:07:37;;;;;;;8.45;1.63;;;;;;;21.62;29.78;101633.59;16115386;19;131456;-48
2023/12/03 15:12:59;;;;;;;8.85;1.85;;;;;;;21.50;29.69;101625.28;16110448;19;130800;-47
2023/12/03 15:18:21;;;;;;;4.90;1.70;;;;;;;21.33;30.01;101617.72;16111982;19;131498;-44
2023/12/03 15:23:43;;;;;;;4.13;1.80;;;;;;;21.17;30.26;101630.47;16112385;19;129912;-47
2023/12/03 15:29:05;;;;;;;3.20;1.80;;;;;;;21.02;30.30;101627.38;16106710;19;132002;-45
2023/12/03 15:34:27;;;;;;;4.15;1.50;;;;;;;20.88;30.26;101622.09;16107693;19;129666;-50
2023/12/03 15:39:50;;;;;;;4.75;1.60;;;;;;;20.74;30.62;101626.19;16109093;19;130222;-49
2023/12/03 15:45:12;;;;;;;3.13;1.70;;;;;;;20.63;30.28;101627.88;16111707;19;130371;-51
2023/12/03 15:50:34;;;;;;;6.38;2.13;;;;;;;20.56;30.95;101622.44;16116817;19;130218;-53
2023/12/03 15:55:56;;;;;;;2.78;1.20;;;;;;;20.65;30.79;101622.09;16111971;19;131002;-48
2023/12/03 16:01:18;;;;;;;2.90;1.33;;;;;;;20.74;30.46;101618.69;16112186;19;129852;-47
2023/12/03 16:06:40;;;;;;;3.30;1.50;;;;;;;20.83;30.59;101610.00;16113313;19;129976;-48
2023/12/03 16:12:02;;;;;;;5.20;1.50;;;;;;;20.94;30.65;101608.28;16102668;19;129616;-46
2023/12/03 16:17:25;;;;;;;2.00;1.38;;;;;;;21.03;30.33;101607.66;16104570;19;131152;-53
2023/12/03 16:22:55;;;;;;;2.30;1.30;;;;;;;21.13;30.36;101600.59;16109294;19;130391;-45
2023/12/03 16:28:17;;;;;;;3.85;1.52;;;;;;;21.15;30.06;101592.84;16109586;19;130643;-47
2023/12/03 16:33:39;;;;;;;1.80;1.10;;;;;;;21.13;30.27;101583.91;16108895;19;131339;-46
2023/12/03 16:39:04;;;;;;;3.83;1.57;;;;;;;21.08;30.42;101569.91;16110382;19;130542;-48
2023/12/03 16:44:25;;;;;;;2.38;1.30;;;;;;;21.06;30.17;101561.78;16107233;19;130090;-48
2023/12/03 16:49:49;;;;;;;5.38;1.35;;;;;;;21.02;30.13;101546.72;16107206;19;130363;-51
2023/12/03 16:55:11;;;;;;;4.18;1.48;;;;;;;20.98;29.97;101545.50;16107758;19;129506;-49
2023/12/03 17:00:33;;;;;;;3.92;1.58;;;;;;;20.96;30.03;101545.78;16104789;19;130000;-48
2023/12/03 17:05:55;;;;;;;6.75;2.13;;;;;;;20.92;30.22;101527.03;16106256;19;129966;-46
2023/12/03 17:11:18;;;;;;;2.10;1.50;;;;;;;20.87;30.15;101519.41;16115464;19;130070;-48
2023/12/03 17:16:40;;;;;;;7.32;1.80;;;;;;;20.84;29.79;101508.81;16115889;19;130926;-48
2023/12/03 17:22:02;;;;;;;5.63;1.65;;;;;;;20.77;29.83;101520.06;16121353;19;129091;-53
2023/12/03 17:27:24;;;;;;;4.10;1.88;;;;;;;20.70;30.33;101503.50;16120215;19;130275;-49
2023/12/03 17:32:46;;;;;;;3.30;1.70;;;;;;;20.74;30.11;101503.84;16118907;19;129859;-46
2023/12/03 17:38:08;;;;;;;11.00;6.90;;;;;;;20.81;30.04;101499.00;16117558;19;131164;-46
2023/12/03 17:43:30;;;;;;;17.08;12.98;;;;;;;20.87;30.15;101486.91;16120263;19;130587;-51
2023/12/03 17:48:52;;;;;;;24.10;16.95;;;;;;;20.94;29.83;101480.34;16122299;19;130285;-47
2023/12/03 17:54:15;;;;;;;35.90;29.10;;;;;;;21.02;29.59;101471.59;16117458;19;130871;-47
2023/12/03 17:59:38;;;;;;;42.53;34.00;;;;;;;21.10;29.93;101462.03;16117208;19;129265;-49
2023/12/03 18:05:00;;;;;;;45.40;37.85;;;;;;;21.09;30.03;101452.81;16112123;19;130689;-50
2023/12/03 18:10:22;;;;;;;58.13;47.80;;;;;;;21.04;29.88;101464.69;16118889;19;129428;-46
2023/12/03 18:15:44;;;;;;;62.17;53.58;;;;;;;20.96;29.86;101458.69;16110390;19;131717;-49
2023/12/03 18:21:06;;;;;;;78.80;64.00;;;;;;;20.85;30.28;101444.59;16115530;19;131250;-50
2023/12/03 18:26:29;;;;;;;90.97;73.35;;;;;;;20.72;30.22;101434.59;16115750;19;129841;-50
2023/12/03 18:31:51;;;;;;;81.57;71.10;;;;;;;20.62;30.40;101427.97;16112027;19;130359;-48
2023/12/03 18:37:13;;;;;;;83.65;69.68;;;;;;;20.55;30.29;101423.44;16116102;19;130165;-47
2023/12/03 18:42:35;;;;;;;79.30;66.85;;;;;;;20.51;30.51;101422.22;16114909;19;130354;-45
2023/12/03 18:47:57;;;;;;;82.05;66.85;;;;;;;20.44;30.32;101410.38;16112051;19;130462;-50
2023/12/03 18:53:19;;;;;;;75.93;64.93;;;;;;;20.38;30.63;101405.84;16117549;19;134639;-46
2023/12/03 18:58:43;;;;;;;74.10;60.00;;;;;;;20.35;30.95;101421.06;16110795;19;131195;-49
2023/12/03 19:04:07;;;;;;;73.78;57.97;;;;;;;20.47;31.20;101409.91;16112726;19;130360;-49
2023/12/03 19:09:30;;;;;;;68.90;54.73;;;;;;;20.63;31.06;101390.75;16113493;19;130222;-45
2023/12/03 19:14:52;;;;;;;61.92;52.10;;;;;;;20.78;31.12;101393.84;16115195;19;129944;-44
2023/12/03 19:20:14;;;;;;;62.15;48.22;;;;;;;20.89;30.80;101390.16;16108246;19;134842;-45
2023/12/03 19:25:37;;;;;;;54.67;44.45;;;;;;;21.02;31.26;101389.00;16113386;19;129835;-51
2023/12/03 19:31:02;;;;;;;49.53;42.15;;;;;;;21.13;31.07;101383.59;16105434;19;131469;-47
2023/12/03 19:36:24;;;;;;;53.15;39.35;;;;;;;21.20;31.11;101389.84;16111548;19;129843;-47
2023/12/03 19:41:46;;;;;;;43.83;36.88;;;;;;;21.20;31.37;101387.06;16114527;19;130802;-48
2023/12/03 19:47:08;;;;;;;40.53;34.60;;;;;;;21.16;31.26;101372.81;16103464;19;130957;-45
2023/12/03 19:52:30;;;;;;;38.42;33.83;;;;;;;21.06;31.16;101378.19;16108819;19;130381;-47
2023/12/03 19:57:53;;;;;;;38.63;31.85;;;;;;;20.94;31.82;101372.72;16110509;19;129659;-48
2023/12/03 20:03:15;;;;;;;37.15;30.60;;;;;;;20.84;31.73;101367.81;16111743;19;130442;-46
2023/12/03 20:08:37;;;;;;;35.05;28.67;;;;;;;20.75;31.90;101369.28;16108133;19;129623;-46
2023/12/03 20:14:01;;;;;;;30.17;26.70;;;;;;;20.65;32.19;101352.44;16112029;19;133422;-49
2023/12/03 20:19:23;;;;;;;32.08;24.83;;;;;;;20.52;32.50;101334.97;16100060;19;130108;-52
2023/12/03 20:24:48;;;;;;;;;;;;;;;20.41;32.61;101342.25;16106394;19;131404;-52
2023/12/03 20:30:11;;;;;;;30.10;23.40;;;;;;;20.37;33.00;101334.66;16109625;19;130745;-46
2023/12/03 20:35:33;;;;;;;36.25;21.02;;;;;;;20.27;32.95;101311.16;16101587;19;131372;-46
2023/12/03 20:40:55;;;;;;;32.45;20.67;;;;;;;20.26;32.74;101298.34;16111875;19;131173;-49
2023/12/03 20:46:17;;;;;;;26.88;17.35;;;;;;;20.37;33.16;101285.47;16108241;19;132016;-48
2023/12/03 20:51:39;;;;;;;22.25;15.35;;;;;;;20.54;32.95;101282.75;16105743;19;131557;-49
2023/12/03 20:57:01;;;;;;;18.63;14.50;;;;;;;20.71;32.90;101276.34;16108849;19;129628;-51
2023/12/03 21:02:23;;;;;;;19.52;12.80;;;;;;;20.83;32.50;101254.91;16106686;19;130672;-46
2023/12/03 21:07:45;;;;;;;21.83;11.20;;;;;;;20.84;32.44;101248.25;16103486;19;131178;-47
2023/12/03 21:13:07;;;;;;;19.65;8.63;;;;;;;20.72;31.60;101253.00;16098387;19;130222;-48
2023/12/03 21:18:29;;;;;;;15.65;6.68;;;;;;;20.56;31.16;101257.47;16094915;19;134371;-48
2023/12/03 21:23:52;;;;;;;13.15;5.93;;;;;;;20.48;31.27;101250.38;16092360;19;130837;-49
2023/12/03 21:29:13;;;;;;;14.82;5.30;;;;;;;20.43;31.10;101261.44;16091642;19;131631;-47
2023/12/03 21:34:36;;;;;;;13.32;4.90;;;;;;;20.35;31.20;101247.94;16101162;19;129791;-48
2023/12/03 21:39:58;;;;;;;7.97;4.78;;;;;;;20.26;31.64;101236.38;16110059;19;129584;-51
2023/12/03 21:45:20;;;;;;;10.10;4.80;;;;;;;20.16;31.55;101242.59;16110434;19;130785;-47
2023/12/03 21:50:42;;;;;;;14.90;4.57;;;;;;;20.07;31.46;101238.53;16100443;19;130390;-45
2023/12/03 21:56:06;;;;;;;9.13;4.30;;;;;;;19.96;31.61;101246.63;16115520;19;131203;-49
2023/12/03 22:01:28;;;;;;;7.30;3.90;;;;;;;19.87;32.12;101239.78;16115025;19;131494;-48
2023/12/03 22:06:50;;;;;;;7.00;3.30;;;;;;;19.80;31.77;101231.59;16112245;19;130139;-47
2023/12/03 22:12:12;;;;;;;6.72;3.72;;;;;;;19.71;32.19;101224.75;16116113;19;130261;-49
2023/12/03 22:17:35;;;;;;;8.43;3.47;;;;;;;19.65;32.23;101223.81;16116318;19;135784;-48
2023/12/03 22:22:57;;;;;;;6.35;3.75;;;;;;;19.59;32.07;101213.69;16112653;19;131698;-48
2023/12/03 22:28:19;;;;;;;4.15;2.80;;;;;;;19.54;32.16;101202.50;16115471;19;131826;-48
2023/12/03 22:33:41;;;;;;;8.77;2.90;;;;;;;19.48;32.63;101200.69;16116068;19;130249;-51
2023/12/03 22:39:05;;;;;;;7.30;2.97;;;;;;;19.45;32.62;101192.84;16112491;19;129560;-48
2023/12/03 22:44:27;;;;;;;3.92;2.40;;;;;;;19.37;32.77;101186.59;16111900;19;132041;-46
2023/12/03 22:49:51;;;;;;;5.77;2.73;;;;;;;19.33;32.80;101174.31;16107160;19;129918;-50
2023/12/03 22:55:13;;;;;;;7.93;2.67;;;;;;;19.27;32.36;101175.31;16115086;19;129788;-52
2023/12/03 23:00:35;;;;;;;2.90;2.10;;;;;;;19.22;32.42;101180.72;16116691;19;130037;-48
2023/12/03 23:05:57;;;;;;;3.15;2.10;;;;;;;19.18;32.65;101176.75;16113622;19;130415;-47
2023/12/03 23:11:19;;;;;;;4.30;2.38;;;;;;;19.13;32.53;101174.69;16117118;19;133672;-50
2023/12/03 23:16:42;;;;;;;2.65;1.83;;;;;;;19.11;32.92;101173.25;16115443;19;130753;-49
2023/12/03 23:22:04;;;;;;;3.53;2.20;;;;;;;19.08;32.71;101161.53;16109093;19;132258;-46
2023/12/03 23:27:26;;;;;;;2.25;1.60;;;;;;;19.06;33.08;101163.75;16112095;19;130149;-49
2023/12/03 23:32:50;;;;;;;5.82;1.63;;;;;;;19.04;32.99;101152.03;16116136;19;130923;-47
2023/12/03 23:38:12;;;;;;;4.03;1.77;;;;;;;19.00;32.58;101142.53;16113583;19;131407;-47
2023/12/03 23:43:34;;;;;;;2.55;1.60;;;;;;;18.97;32.62;101144.94;16105680;19;131636;-52
2023/12/03 23:48:56;;;;;;;2.25;1.63;;;;;;;18.93;32.98;101141.81;16109963;19;130358;-47
2023/12/03 23:54:18;;;;;;;2.38;1.60;;;;;;;;;;16110337;19;131393;-47
2023/12/03 23:59:40;;;;;;;2.83;1.33;;;;;;;18.86;33.10;101125.31;16112651;19;130180;-49
